Mid Delta Regional Airport
KGLH : now visible

Airfield :











YOU CAN JOIN US ON...

 
LOGIN :

Register | Disclaimer

   EN    FR    IT 

 









Legend :    VFR   Marginal VFR   IFR   Intensive IFR   Very Intensive IFR
Visi :
Ceiling :
>= 8 km
>= 3000ft
5 to 8 km
1000 to 3000 ft
1500m to 5 km
500 to 1000 ft
800 to 1500m
200 to 500 ft
< 800m
< 200 ft
Symbols :   Thunderstorms  Fog  Heavy snow  Heavy precipitations  Wind > 20 kt






- Airport Elevation : 131 ft
- IATA code : GLH


KGLH - Mid Delta Regional

CURRENT METAR :
  • 291353Z 36005KT 4SM RA BR OVC050 09/08 A2995 RMK AO2 RAB17 SLP149 P0007 T00890078

EXPIRED METARs :
  • 291253Z 02007KT 10SM OVC085 09/08 A2992 RMK AO2 SLP138 T00940078
  • 291153Z AUTO 04008KT 10SM BKN100 BKN120 09/07 A2989 RMK AO2 SLP129 70002 T00940072 10100 20094 56002

TAF KGLH
Valid from the 29 at 12:00 until the 30 at 12:00 UTC


291146Z 2912/3012 01007KT P6SM VCSH BKN090 OVC100
FM291400 05010KT P6SM RA OVC050
FM291600 04010KT 4SM -RA OVC025
FM291900 03008KT P6SM OVC025
FM300300 01010KT P6SM OVC007



MET'MAP, your aeronautical weather chart ! - Copyright ORBIFLY December 2007 - Disclaimer

ORBIFLY MET'MAP TEAM :

Programming & Development : Alexandra Zaïnal
Concept & original design : Baudouin d'Aumeries
Assistance for programming : Marc-Olivier Méhu
Technical & hardware support : Manuel Goepfert

Contact : metmap@orbifly.com




SOURCES & CREDITS :

   NOAA       Earth
Advisory